Time;durP1;ratioP1;P1;durP2;ratioP2;P2;SDS_P1;SDS_P2;PMS_P1;PMS_P2;Temp;Humidity;BMP_temperature;BMP_pressure;BME280_temperature;BME280_humidity;BME280_pressure;Samples;Min_cycle;Max_cycle;Signal;HPM_P1;HPM_P2
2021/03/09 00:02:23;;;;;;;20.80;9.00;;;;;;;2.60;57.07;97394.44;4956515;28;20054;-77
2021/03/09 00:04:48;;;;;;;21.45;10.20;;;;;;;2.42;57.33;97374.34;4971896;28;20429;-77
2021/03/09 00:07:14;;;;;;;20.70;9.77;;;;;;;2.52;56.72;97392.00;4950320;28;20497;-77
2021/03/09 00:09:39;;;;;;;20.52;9.52;;;;;;;2.53;57.00;97383.31;4964277;28;20044;-77
2021/03/09 00:12:06;;;;;;;16.52;8.00;;;;;;;2.49;57.22;97387.25;4972489;28;20052;-77
2021/03/09 00:14:32;;;;;;;18.58;7.13;;;;;;;2.58;56.77;97398.97;4969221;28;20033;-77
2021/03/09 00:16:59;;;;;;;16.17;7.15;;;;;;;2.57;56.86;97387.09;4964308;28;20521;-77
2021/03/09 00:19:25;;;;;;;17.80;7.70;;;;;;;2.53;57.36;97384.09;4971321;28;20034;-77
2021/03/09 00:21:51;;;;;;;18.42;7.50;;;;;;;2.49;57.75;97384.69;4956628;28;20041;-77
2021/03/09 00:24:17;;;;;;;19.92;8.82;;;;;;;2.44;57.96;97386.03;4956798;28;20021;-77
2021/03/09 00:26:44;;;;;;;20.02;8.85;;;;;;;2.40;57.92;97387.38;4954122;28;20096;-77
2021/03/09 00:29:10;;;;;;;19.77;9.23;;;;;;;2.51;58.20;97393.00;4952499;28;20125;-77
2021/03/09 00:31:35;;;;;;;18.20;8.95;;;;;;;2.50;57.68;97383.69;4982071;28;20033;-77
2021/03/09 00:34:00;;;;;;;16.02;6.93;;;;;;;2.56;57.40;97388.09;4982475;28;20116;-77
2021/03/09 00:36:26;;;;;;;19.05;8.00;;;;;;;2.49;57.19;97376.97;4980677;28;20036;-77
2021/03/09 00:38:51;;;;;;;15.48;7.95;;;;;;;2.49;57.38;97377.75;4953018;28;20042;-77
2021/03/09 00:41:17;;;;;;;18.77;7.80;;;;;;;2.57;57.21;97380.19;4992747;28;20061;-77
2021/03/09 00:43:42;;;;;;;13.15;5.80;;;;;;;2.56;57.10;97382.94;4973572;28;20568;-77
2021/03/09 00:46:07;;;;;;;15.18;6.28;;;;;;;2.57;57.53;97379.38;4966921;28;20111;-77
2021/03/09 00:48:37;;;;;;;11.63;5.78;;;;;;;2.36;57.47;97368.16;4954924;28;20082;-77
2021/03/09 00:51:03;;;;;;;15.25;6.00;;;;;;;2.54;57.96;97375.41;4974759;28;20052;-77
2021/03/09 00:53:28;;;;;;;11.88;5.55;;;;;;;2.54;58.21;97372.06;4987285;28;20061;-77
2021/03/09 00:55:54;;;;;;;12.02;5.93;;;;;;;2.55;58.08;97376.22;4980859;28;20124;-77
2021/03/09 00:58:19;;;;;;;11.60;5.60;;;;;;;2.51;57.98;97360.38;4955559;28;20468;-77
2021/03/09 01:00:45;;;;;;;14.60;5.75;;;;;;;2.53;58.34;97362.75;4957579;28;20060;-77
2021/03/09 01:03:10;;;;;;;12.52;5.55;;;;;;;2.48;58.22;97360.75;4975237;28;20050;-77
2021/03/09 01:05:35;;;;;;;12.50;6.43;;;;;;;2.48;58.67;97363.31;4999511;28;20557;-77
2021/03/09 01:08:01;;;;;;;11.80;6.00;;;;;;;2.46;58.51;97349.84;4969622;28;20465;-77
2021/03/09 01:10:26;;;;;;;10.73;5.55;;;;;;;2.44;58.56;97349.25;4958217;28;20092;-77
2021/03/09 01:12:52;;;;;;;14.82;6.88;;;;;;;2.46;58.47;97356.78;4974052;28;20045;-77
2021/03/09 01:15:17;;;;;;;13.63;6.20;;;;;;;2.46;58.58;97346.50;4958078;28;20100;-77
2021/03/09 01:17:43;;;;;;;12.07;5.57;;;;;;;2.46;58.24;97351.66;4962317;28;20033;-77
2021/03/09 01:20:09;;;;;;;12.50;5.75;;;;;;;2.47;58.46;97358.34;4974211;28;20026;-77
2021/03/09 01:22:35;;;;;;;12.75;5.75;;;;;;;2.49;58.28;97353.84;4969652;28;20105;-77
2021/03/09 01:25:01;;;;;;;14.07;6.78;;;;;;;2.47;58.64;97353.22;4990105;28;20117;-77
2021/03/09 01:27:27;;;;;;;13.40;5.63;;;;;;;2.43;58.52;97348.47;4989688;28;20042;-77
2021/03/09 01:29:52;;;;;;;11.20;6.00;;;;;;;2.43;58.59;97347.66;5006553;28;20049;-77
2021/03/09 01:32:18;;;;;;;14.02;7.10;;;;;;;2.35;59.33;97340.91;4990352;28;20034;-77
2021/03/09 01:34:43;;;;;;;15.15;6.95;;;;;;;2.31;59.28;97339.66;4963931;28;20122;-77
2021/03/09 01:37:08;;;;;;;12.25;6.35;;;;;;;2.33;59.63;97348.00;4973547;28;20500;-77
2021/03/09 01:39:34;;;;;;;14.27;6.85;;;;;;;2.27;59.77;97335.09;4972082;28;20635;-77
2021/03/09 01:42:00;;;;;;;17.23;7.57;;;;;;;2.30;59.99;97332.97;4969883;28;20073;-77
2021/03/09 01:44:26;;;;;;;17.75;7.63;;;;;;;2.37;59.62;97333.78;4986233;28;20088;-77
2021/03/09 01:46:52;;;;;;;14.52;7.20;;;;;;;2.40;59.18;97336.00;4989088;28;20405;-77
2021/03/09 01:49:18;;;;;;;13.45;7.28;;;;;;;2.38;59.25;97329.44;4986647;28;20049;-77
2021/03/09 01:51:44;;;;;;;14.38;6.97;;;;;;;2.38;59.51;97325.13;4994290;28;20030;-77
2021/03/09 01:54:11;;;;;;;14.88;7.78;;;;;;;2.39;59.42;97328.47;4961955;28;20029;-77
2021/03/09 01:56:37;;;;;;;15.95;7.57;;;;;;;2.42;59.82;97321.19;4992199;28;20509;-77
2021/03/09 01:59:02;;;;;;;16.70;7.88;;;;;;;2.40;59.60;97318.00;4961847;28;20092;-77
2021/03/09 02:01:28;;;;;;;16.55;7.65;;;;;;;2.37;59.81;97320.94;4947128;28;20496;-77
2021/03/09 02:03:54;;;;;;;18.00;8.65;;;;;;;2.39;59.58;97318.97;5069472;23;20885;-78
2021/03/09 02:06:22;;;;;;;16.35;6.55;;;;;;;2.35;59.66;97317.00;5060764;28;20031;-78
2021/03/09 02:08:48;;;;;;;17.33;7.63;;;;;;;2.40;59.51;97317.22;5078278;28;20059;-78
2021/03/09 02:11:37;;;;;;;15.13;6.93;;;;;;;2.12;59.77;97318.00;5055155;28;20028;-78
2021/03/09 02:14:08;;;;;;;13.27;6.93;;;;;;;2.41;59.85;97311.09;5067112;28;20039;-78
2021/03/09 02:16:39;;;;;;;14.68;6.22;;;;;;;2.17;59.39;97302.03;5086869;28;20073;-78
2021/03/09 02:19:42;;;;;;;14.75;7.05;;;;;;;2.13;59.93;97303.41;5059318;28;20388;-78
2021/03/09 02:22:20;;;;;;;13.40;6.60;;;;;;;2.20;59.94;97306.81;5072459;28;20043;-78
2021/03/09 02:25:05;;;;;;;14.10;7.93;;;;;;;2.14;59.83;97298.09;5079064;28;20020;-78
2021/03/09 02:27:51;;;;;;;15.75;7.43;;;;;;;2.03;60.42;97290.88;5079244;28;20031;-78
2021/03/09 02:30:21;;;;;;;15.18;7.13;;;;;;;2.22;60.04;97299.69;5075040;28;20773;-78
2021/03/09 02:33:11;;;;;;;15.93;7.70;;;;;;;2.14;60.19;97303.22;5050570;28;20077;-78
2021/03/09 02:35:40;;;;;;;19.30;8.95;;;;;;;2.26;59.88;97288.06;5090924;28;20066;-78
2021/03/09 02:38:08;;;;;;;15.52;8.35;;;;;;;2.42;60.08;97287.78;5061285;28;20028;-78
2021/03/09 02:40:34;;;;;;;16.35;7.85;;;;;;;2.43;59.66;97279.09;5071389;28;20470;-78
2021/03/09 02:43:04;;;;;;;17.33;8.32;;;;;;;2.33;59.93;97286.34;5068893;28;20036;-78
2021/03/09 02:45:30;;;;;;;20.83;9.40;;;;;;;2.49;60.06;97285.25;5059884;28;20450;-78
2021/03/09 02:47:57;;;;;;;17.30;9.05;;;;;;;2.51;60.28;97285.06;5065944;28;20056;-78
2021/03/09 02:50:25;;;;;;;17.25;8.77;;;;;;;2.42;60.15;97277.50;5087506;28;20031;-78
2021/03/09 02:53:01;;;;;;;22.05;9.98;;;;;;;2.32;60.59;97274.47;5095298;28;20076;-78
2021/03/09 02:55:28;;;;;;;18.17;8.88;;;;;;;2.56;60.00;97277.56;5078477;28;20015;-78
2021/03/09 02:57:55;;;;;;;18.55;8.68;;;;;;;2.61;59.76;97283.72;5073637;28;20032;-78
2021/03/09 03:00:21;;;;;;;16.38;8.07;;;;;;;2.64;59.88;97277.41;5068824;28;20229;-78
2021/03/09 03:02:47;;;;;;;20.13;9.82;;;;;;;2.61;59.91;97278.56;5048397;28;20387;-78
2021/03/09 03:05:14;;;;;;;20.73;9.15;;;;;;;2.64;60.40;97277.41;5067881;28;20032;-78
2021/03/09 03:07:39;;;;;;;21.08;9.80;;;;;;;2.58;61.01;97273.03;5054917;28;20032;-78
2021/03/09 03:10:07;;;;;;;20.17;9.25;;;;;;;2.65;59.94;97278.19;5051636;28;20024;-78
2021/03/09 03:12:33;;;;;;;19.05;10.27;;;;;;;2.59;60.29;97270.25;5092028;28;20059;-78
2021/03/09 03:15:02;;;;;;;20.30;10.07;;;;;;;2.48;60.69;97275.16;5075475;28;20091;-78
2021/03/09 03:17:30;;;;;;;22.25;10.10;;;;;;;2.51;60.88;97267.06;5058948;28;20501;-78
2021/03/09 03:19:57;;;;;;;24.50;10.60;;;;;;;2.60;61.03;97277.00;5057155;28;20021;-78
2021/03/09 03:22:24;;;;;;;21.13;9.52;;;;;;;2.63;60.50;97275.81;5066280;28;20031;-78
2021/03/09 03:24:50;;;;;;;18.08;9.10;;;;;;;2.60;60.38;97271.03;5073232;28;20515;-78
2021/03/09 03:27:19;;;;;;;18.17;8.77;;;;;;;2.54;60.43;97277.75;5071573;28;20186;-78
2021/03/09 03:29:48;;;;;;;22.25;10.18;;;;;;;2.47;60.71;97258.94;5071469;28;20029;-78
2021/03/09 03:32:17;;;;;;;20.02;10.02;;;;;;;2.58;60.62;97260.16;5089878;28;20043;-78
2021/03/09 03:34:46;;;;;;;22.08;11.00;;;;;;;2.72;60.39;97261.81;5071254;28;20069;-78
2021/03/09 03:37:14;;;;;;;19.98;9.13;;;;;;;2.73;60.76;97271.13;5062100;28;20032;-78
2021/03/09 03:39:39;;;;;;;20.38;10.50;;;;;;;2.83;60.93;97275.09;5051082;28;20028;-78
2021/03/09 03:42:05;;;;;;;22.52;10.98;;;;;;;2.88;60.54;97280.44;5072467;28;20059;-78
2021/03/09 03:44:31;;;;;;;22.27;10.82;;;;;;;2.89;60.42;97276.91;5054579;28;20043;-78
2021/03/09 03:46:56;;;;;;;25.02;11.77;;;;;;;2.79;60.79;97270.34;5038201;28;20029;-78
2021/03/09 03:49:22;;;;;;;19.75;10.05;;;;;;;2.82;60.50;97274.31;5089779;28;20039;-78
2021/03/09 03:51:52;;;;;;;22.50;10.93;;;;;;;2.72;60.21;97269.50;5057726;28;20115;-78
2021/03/09 03:54:39;;;;;;;22.77;10.05;;;;;;;2.54;60.41;97269.25;5074412;28;20039;-78
2021/03/09 03:57:10;;;;;;;23.58;10.50;;;;;;;2.77;60.57;97281.81;5057925;28;20078;-78
2021/03/09 03:59:38;;;;;;;22.95;11.18;;;;;;;2.76;60.03;97270.75;5054614;28;20028;-78
2021/03/09 04:02:07;;;;;;;22.52;11.07;;;;;;;2.84;60.19;97276.69;5080505;28;20044;-79
2021/03/09 04:04:34;;;;;;;25.17;11.20;;;;;;;2.83;60.81;97260.47;5051339;28;20032;-78
2021/03/09 04:07:03;;;;;;;21.70;10.93;;;;;;;2.84;60.78;97266.41;5032551;28;20039;-78
2021/03/09 04:09:29;;;;;;;25.52;12.18;;;;;;;2.89;60.13;97258.91;5053590;28;20054;-78
2021/03/09 04:11:56;;;;;;;25.92;11.98;;;;;;;2.86;60.79;97254.16;5067813;28;20463;-78
2021/03/09 04:14:22;;;;;;;27.48;12.07;;;;;;;2.98;60.57;97257.75;5033112;28;20111;-78
2021/03/09 04:16:51;;;;;;;24.77;11.68;;;;;;;2.93;60.12;97257.53;5041519;28;20032;-78
2021/03/09 04:19:17;;;;;;;21.40;11.45;;;;;;;2.96;60.74;97250.22;5074069;28;20028;-78
2021/03/09 04:21:43;;;;;;;27.95;12.38;;;;;;;3.04;60.63;97256.19;5045952;28;20028;-78
2021/03/09 04:24:10;;;;;;;29.20;12.73;;;;;;;3.04;60.25;97259.56;5047916;28;20543;-78
2021/03/09 04:26:37;;;;;;;28.70;11.98;;;;;;;3.04;60.58;97251.84;5056986;28;20132;-77
2021/03/09 04:29:02;;;;;;;27.50;12.65;;;;;;;3.03;60.25;97246.88;5036870;28;20028;-77
2021/03/09 04:31:28;;;;;;;26.13;13.18;;;;;;;2.93;60.59;97235.19;5055873;28;20157;-79
2021/03/09 04:33:54;;;;;;;26.08;13.27;;;;;;;3.06;60.34;97249.84;5037510;28;20024;-77
2021/03/09 04:36:20;;;;;;;25.33;12.10;;;;;;;3.15;60.49;97256.44;5038127;28;20035;-77
2021/03/09 04:38:47;;;;;;;23.35;12.30;;;;;;;3.08;60.07;97258.16;5052679;28;20112;-77
2021/03/09 04:41:14;;;;;;;30.65;13.73;;;;;;;3.16;60.55;97265.72;5054511;28;20032;-76
2021/03/09 04:43:39;;;;;;;25.42;12.57;;;;;;;3.14;60.95;97257.41;5073150;28;20039;-77
2021/03/09 04:46:05;;;;;;;25.98;12.68;;;;;;;3.16;60.63;97270.84;5046164;28;20047;-77
2021/03/09 04:48:30;;;;;;;30.08;15.27;;;;;;;3.22;60.42;97265.91;5069999;28;20059;-77
2021/03/09 04:51:06;;;;;;;32.22;14.80;;;;;;;2.90;60.47;97250.22;5056240;28;20486;-77
2021/03/09 04:53:31;;;;;;;;;;;;;;;2.67;62.00;97255.66;5056553;28;20024;-77
2021/03/09 04:56:03;;;;;;;28.98;11.63;;;;;;;2.98;60.64;97255.16;5052609;28;19915;-77
2021/03/09 04:58:28;;;;;;;27.15;12.20;;;;;;;3.13;60.10;97250.66;5050104;28;20434;-77
2021/03/09 05:00:54;;;;;;;26.33;13.63;;;;;;;3.22;60.15;97260.78;5053590;28;20052;-77
2021/03/09 05:03:20;;;;;;;29.15;14.00;;;;;;;3.17;60.34;97254.44;5033152;28;20055;-77
2021/03/09 05:05:45;;;;;;;29.50;13.68;;;;;;;3.18;60.57;97250.09;5089377;28;20123;-77
2021/03/09 05:08:11;;;;;;;27.92;13.48;;;;;;;3.19;60.20;97249.88;5060577;28;20044;-78
2021/03/09 05:10:37;;;;;;;26.02;12.73;;;;;;;3.16;60.51;97245.13;5042727;28;20042;-77
2021/03/09 05:13:04;;;;;;;26.58;13.90;;;;;;;3.24;60.37;97253.66;5089016;28;20028;-77
2021/03/09 05:15:30;;;;;;;29.70;13.18;;;;;;;3.19;60.18;97255.03;5089425;28;20052;-78
2021/03/09 05:17:55;;;;;;;27.85;13.30;;;;;;;3.19;60.50;97249.88;5090989;28;20487;-79
2021/03/09 05:20:21;;;;;;;25.35;12.18;;;;;;;3.23;60.22;97249.50;5089925;28;20106;-79
2021/03/09 05:22:46;;;;;;;27.38;13.02;;;;;;;3.20;60.27;97248.09;5045581;28;20036;-79
2021/03/09 05:25:14;;;;;;;32.45;14.48;;;;;;;3.13;60.54;97258.38;5057962;28;20031;-79
2021/03/09 05:27:41;;;;;;;28.45;14.07;;;;;;;3.14;60.38;97259.97;5077399;28;20102;-78
2021/03/09 05:30:08;;;;;;;26.58;13.85;;;;;;;3.19;60.98;97255.03;5069840;28;20028;-79
2021/03/09 05:32:33;;;;;;;28.30;14.27;;;;;;;3.19;61.17;97256.81;5093805;28;20030;-78
2021/03/09 05:34:58;;;;;;;29.75;14.07;;;;;;;3.18;60.68;97258.59;5077012;28;20110;-78
2021/03/09 05:37:24;;;;;;;30.20;13.70;;;;;;;3.15;60.79;97253.03;5063936;28;20750;-78
2021/03/09 05:39:49;;;;;;;29.50;14.50;;;;;;;3.13;61.27;97249.88;5077324;28;20024;-79
2021/03/09 05:42:15;;;;;;;28.73;14.70;;;;;;;3.18;60.85;97252.66;5075065;28;20020;-78
2021/03/09 05:44:41;;;;;;;31.70;14.27;;;;;;;3.15;61.11;97248.72;5093935;28;20157;-78
2021/03/09 05:47:07;;;;;;;34.00;16.20;;;;;;;3.15;60.83;97251.28;5064349;28;20104;-78
2021/03/09 05:49:32;;;;;;;29.05;13.95;;;;;;;3.16;60.87;97254.63;5075627;28;20024;-78
2021/03/09 05:51:59;;;;;;;32.08;14.32;;;;;;;3.16;61.06;97264.94;5064997;28;20046;-78
2021/03/09 05:54:25;;;;;;;32.47;15.23;;;;;;;3.16;61.19;97255.41;5054482;28;20024;-79
2021/03/09 05:56:50;;;;;;;33.47;15.65;;;;;;;3.20;60.76;97258.41;5076846;28;20066;-78
2021/03/09 05:59:17;;;;;;;30.38;13.95;;;;;;;3.11;60.91;97262.94;5092713;28;20043;-78
2021/03/09 06:01:43;;;;;;;26.00;13.57;;;;;;;3.15;61.00;97266.72;5092669;28;20054;-78
2021/03/09 06:04:09;;;;;;;28.30;14.25;;;;;;;3.10;61.05;97261.34;5065308;28;20048;-79
2021/03/09 06:06:35;;;;;;;29.35;13.60;;;;;;;3.11;61.02;97247.50;5075599;28;20127;-79
2021/03/09 06:09:01;;;;;;;29.80;13.30;;;;;;;3.16;61.33;97270.84;5064124;28;20104;-79
2021/03/09 06:11:27;;;;;;;31.92;14.02;;;;;;;3.15;60.75;97259.00;5041711;28;20068;-79
2021/03/09 06:13:54;;;;;;;27.20;14.55;;;;;;;3.17;60.82;97262.16;5056057;28;20028;-79
2021/03/09 06:16:22;;;;;;;28.13;13.82;;;;;;;3.22;60.46;97265.91;5057057;28;20029;-79
2021/03/09 06:18:55;;;;;;;27.88;13.18;;;;;;;3.05;60.73;97268.88;5058460;28;20032;-79
2021/03/09 06:21:21;;;;;;;34.10;16.27;;;;;;;3.21;60.90;97256.63;5058383;28;20520;-79
2021/03/09 06:23:46;;;;;;;30.63;15.38;;;;;;;3.23;61.39;97259.81;5074755;28;20123;-79
2021/03/09 06:26:30;;;;;;;30.13;13.93;;;;;;;2.96;61.70;97264.88;5058642;28;20585;-79
2021/03/09 06:29:25;;;;;;;31.80;15.57;;;;;;;2.90;61.86;97260.50;5091974;28;20032;-79
2021/03/09 06:31:50;;;;;;;32.25;16.38;;;;;;;3.29;61.45;97267.53;5061063;28;20042;-79
2021/03/09 06:34:22;;;;;;;33.10;16.80;;;;;;;3.21;61.70;97269.50;5089435;28;20028;-79
2021/03/09 06:37:08;;;;;;;40.15;15.63;;;;;;;3.08;61.45;97263.31;5059420;28;20124;-79
2021/03/09 06:39:47;;;;;;;35.50;17.08;;;;;;;3.13;61.80;97268.66;5075401;28;20039;-79
2021/03/09 06:42:15;;;;;;;31.02;14.38;;;;;;;3.35;60.69;97255.66;5091955;28;20028;-79
2021/03/09 06:44:42;;;;;;;36.20;17.15;;;;;;;3.49;60.68;97270.13;5072076;28;20677;-79
2021/03/09 06:47:08;;;;;;;34.30;16.73;;;;;;;3.51;60.73;97263.00;5085511;28;20059;-79
2021/03/09 06:49:53;;;;;;;31.02;14.82;;;;;;;3.34;60.57;97266.94;5058541;28;20393;-79
2021/03/09 06:52:20;;;;;;;34.10;16.03;;;;;;;3.61;60.66;97264.41;5068247;28;20119;-79
2021/03/09 06:54:53;;;;;;;37.72;16.05;;;;;;;3.66;60.52;97267.16;5075184;28;20334;-79
2021/03/09 06:57:19;;;;;;;35.92;16.20;;;;;;;3.74;59.98;97264.41;5058784;28;20406;-79
2021/03/09 06:59:55;;;;;;;34.75;17.23;;;;;;;3.73;59.74;97273.13;5055433;28;20032;-79
2021/03/09 07:02:24;;;;;;;40.22;18.17;;;;;;;3.79;60.34;97269.75;5054782;28;20044;-78
2021/03/09 07:05:10;;;;;;;38.00;17.92;;;;;;;3.48;60.70;97276.28;5073315;28;20040;-79
2021/03/09 07:07:41;;;;;;;44.95;21.83;;;;;;;3.63;60.25;97285.59;5057855;28;20036;-79
2021/03/09 07:10:09;;;;;;;41.28;22.15;;;;;;;3.79;59.47;97279.25;5066004;28;20043;-79
2021/03/09 07:12:37;;;;;;;38.75;20.08;;;;;;;3.85;59.67;97276.69;5057273;28;20031;-78
2021/03/09 07:15:05;;;;;;;33.75;18.48;;;;;;;3.95;59.52;97278.88;5057661;28;20475;-79
2021/03/09 07:17:32;;;;;;;36.33;19.35;;;;;;;3.99;59.70;97279.25;5070784;28;20059;-78
2021/03/09 07:19:58;;;;;;;35.28;17.00;;;;;;;4.14;59.50;97287.56;5056660;28;20458;-79
2021/03/09 07:22:25;;;;;;;36.65;18.35;;;;;;;4.22;59.36;97287.38;5056792;28;20463;-79
2021/03/09 07:25:11;;;;;;;41.85;18.42;;;;;;;4.00;59.62;97288.56;5071327;28;20475;-78
2021/03/09 07:27:37;;;;;;;39.47;18.33;;;;;;;4.30;59.43;97292.31;5085188;28;20084;-79
2021/03/09 07:30:05;;;;;;;37.17;18.40;;;;;;;4.35;59.09;97296.06;5050160;28;20107;-80
2021/03/09 07:32:31;;;;;;;43.55;21.20;;;;;;;4.43;59.23;97295.84;5065972;28;20036;-78
2021/03/09 07:34:58;;;;;;;42.17;20.63;;;;;;;4.28;59.45;97294.31;5049349;28;20043;-79
2021/03/09 07:37:24;;;;;;;44.50;22.75;;;;;;;4.40;59.06;97284.16;5072196;28;20032;-79
2021/03/09 07:39:50;;;;;;;40.10;19.98;;;;;;;4.49;58.61;97284.75;5072475;28;20028;-79
2021/03/09 07:42:17;;;;;;;39.45;18.58;;;;;;;4.55;58.23;97288.28;5055233;28;20039;-78
2021/03/09 07:44:44;;;;;;;33.08;17.58;;;;;;;4.65;57.82;97297.19;5071660;28;20040;-78
2021/03/09 07:47:12;;;;;;;40.05;19.27;;;;;;;4.62;58.42;97301.94;5052276;28;20138;-79
2021/03/09 07:49:39;;;;;;;38.72;19.27;;;;;;;4.75;58.21;97299.34;5065733;28;20106;-78
2021/03/09 07:52:15;;;;;;;36.45;18.08;;;;;;;4.68;58.41;97294.19;5071451;28;20166;-79
2021/03/09 07:55:17;;;;;;;36.75;21.02;;;;;;;4.47;58.21;97297.03;5055028;28;20027;-78
2021/03/09 07:57:42;;;;;;;39.63;18.95;;;;;;;5.01;57.99;97301.03;5071685;28;20482;-79
2021/03/09 08:00:12;;;;;;;43.78;23.23;;;;;;;4.98;57.46;97293.69;5055560;28;20161;-78
2021/03/09 08:02:44;;;;;;;39.22;21.40;;;;;;;4.95;57.62;97298.47;5067606;28;20043;-79
2021/03/09 08:05:16;;;;;;;39.17;20.83;;;;;;;4.95;57.30;97288.97;5055845;28;20040;-78
2021/03/09 08:07:46;;;;;;;31.52;16.98;;;;;;;5.08;57.16;97298.41;5052070;28;20039;-78
2021/03/09 08:10:27;;;;;;;39.78;19.00;;;;;;;5.02;57.14;97307.78;5055665;28;20036;-78
2021/03/09 08:12:54;;;;;;;32.90;17.85;;;;;;;5.30;57.55;97296.31;5034569;28;20028;-78
2021/03/09 08:15:20;;;;;;;33.33;17.27;;;;;;;5.50;56.46;97303.97;5048678;28;20036;-78
2021/03/09 08:17:46;;;;;;;35.55;18.08;;;;;;;5.49;56.81;97302.38;5034541;28;20031;-78
2021/03/09 08:20:47;;;;;;;33.17;16.42;;;;;;;5.40;56.45;97314.72;5055340;28;20020;-78
2021/03/09 08:23:31;;;;;;;35.80;17.05;;;;;;;5.47;56.14;97311.31;5047330;28;20036;-78
2021/03/09 08:25:56;;;;;;;34.85;17.60;;;;;;;5.77;55.56;97307.13;5042148;28;20031;-78
2021/03/09 08:28:35;;;;;;;33.20;17.48;;;;;;;5.56;56.38;97302.31;5065675;28;20458;-78
2021/03/09 08:31:10;;;;;;;38.35;17.83;;;;;;;5.68;56.15;97313.56;5051428;28;20075;-78
2021/03/09 08:33:36;;;;;;;33.88;17.15;;;;;;;5.91;55.48;97301.88;5054033;28;20474;-78
2021/03/09 08:41:34;;;;;;;31.80;17.35;;;;;;;6.41;53.98;97322.56;5083785;28;20039;-78
2021/03/09 08:47:09;;;;;;;29.83;15.05;;;;;;;6.12;55.10;97318.84;5069371;28;20605;-78
2021/03/09 08:49:34;;;;;;;33.65;15.30;;;;;;;6.41;54.67;97321.75;5073348;28;20028;-78
2021/03/09 08:52:18;;;;;;;32.85;17.05;;;;;;;6.17;54.01;97319.78;5050568;28;20085;-78
2021/03/09 08:54:49;;;;;;;32.37;15.47;;;;;;;6.38;54.19;97320.41;5080510;28;20409;-78
2021/03/09 08:57:15;;;;;;;32.53;15.98;;;;;;;6.74;53.17;97324.03;5036259;28;20039;-78
2021/03/09 08:59:42;;;;;;;30.38;16.17;;;;;;;6.76;52.71;97324.59;5051472;28;20369;-78
2021/03/09 09:02:14;;;;;;;27.33;14.82;;;;;;;6.76;52.69;97319.41;5048026;28;20033;-77
2021/03/09 09:04:44;;;;;;;29.10;15.75;;;;;;;7.03;52.77;97321.72;5053069;28;20028;-78
2021/03/09 09:07:28;;;;;;;28.15;12.82;;;;;;;7.02;53.16;97317.53;5068054;28;20036;-78
2021/03/09 09:09:56;;;;;;;26.60;13.48;;;;;;;7.37;52.42;97322.06;5061485;28;20385;-78
2021/03/09 09:12:25;;;;;;;25.83;13.95;;;;;;;7.53;51.05;97316.28;5035183;28;20152;-77
2021/03/09 09:15:03;;;;;;;27.98;13.75;;;;;;;7.35;51.11;97321.50;5036913;28;20016;-77
2021/03/09 09:17:29;;;;;;;31.50;15.65;;;;;;;7.83;51.46;97318.03;5073002;28;20107;-78
2021/03/09 09:19:56;;;;;;;27.80;14.10;;;;;;;7.82;50.51;97313.88;5075204;28;20090;-77
2021/03/09 09:22:24;;;;;;;24.92;13.07;;;;;;;7.84;49.65;97317.81;5047023;28;20036;-77
2021/03/09 09:25:02;;;;;;;26.35;14.00;;;;;;;7.60;50.78;97324.75;5029468;28;20367;-78
2021/03/09 09:27:28;;;;;;;26.67;14.32;;;;;;;7.99;49.68;97327.78;5031254;28;20066;-77
2021/03/09 09:29:55;;;;;;;27.25;14.38;;;;;;;7.75;49.65;97326.16;5040523;28;20121;-77
2021/03/09 09:32:22;;;;;;;30.05;15.48;;;;;;;7.69;50.10;97330.41;5053284;28;20039;-77
2021/03/09 09:34:58;;;;;;;27.55;15.43;;;;;;;7.30;50.56;97325.56;5031185;28;20032;-78
2021/03/09 09:37:23;;;;;;;30.50;14.32;;;;;;;7.67;49.93;97330.63;5068669;28;20106;-78
2021/03/09 09:39:48;;;;;;;38.28;18.25;;;;;;;8.07;49.84;97322.25;5042216;28;20024;-78
2021/03/09 09:42:19;;;;;;;29.08;15.35;;;;;;;7.83;49.04;97328.41;5030657;28;20114;-77
2021/03/09 09:44:45;;;;;;;25.10;12.75;;;;;;;8.36;47.82;97319.78;5045246;28;20385;-77
2021/03/09 09:47:11;;;;;;;30.10;14.68;;;;;;;8.45;47.51;97333.25;5063452;28;20021;-78
2021/03/09 09:53:06;;;;;;;21.42;11.23;;;;;;;8.39;47.08;97329.69;5043603;28;20123;-77
2021/03/09 09:55:31;;;;;;;26.83;13.07;;;;;;;8.48;45.66;97326.78;5051610;28;20075;-78
2021/03/09 09:57:59;;;;;;;38.42;18.20;;;;;;;8.36;46.35;97322.38;5036049;28;20351;-77
2021/03/09 10:00:30;;;;;;;39.83;17.73;;;;;;;8.43;46.80;97325.69;5052056;28;20027;-77
2021/03/09 10:03:17;;;;;;;24.27;11.75;;;;;;;8.53;44.61;97332.88;5058500;28;20048;-77
2021/03/09 10:05:44;;;;;;;17.75;10.05;;;;;;;9.15;44.32;97329.75;5082483;28;20056;-77
2021/03/09 10:08:11;;;;;;;20.85;10.98;;;;;;;9.39;44.13;97324.47;5069164;28;20045;-78
2021/03/09 10:10:40;;;;;;;19.95;10.10;;;;;;;9.36;43.38;97333.50;5086959;28;20024;-78
2021/03/09 10:13:22;;;;;;;23.83;10.68;;;;;;;8.78;45.67;97329.25;5055054;28;20028;-77
2021/03/09 10:15:49;;;;;;;20.77;10.10;;;;;;;9.35;44.35;97331.13;5071587;28;20025;-78
2021/03/09 10:18:35;;;;;;;92.80;38.88;;;;;;;8.57;45.41;97339.22;5073128;28;20040;-77
2021/03/09 10:21:11;;;;;;;15.70;8.60;;;;;;;9.23;43.33;97325.19;5049939;28;20027;-77
2021/03/09 10:23:56;;;;;;;20.65;11.70;;;;;;;8.98;46.44;97321.09;5058020;28;20453;-78
2021/03/09 10:26:46;;;;;;;19.55;9.43;;;;;;;9.21;45.52;97328.00;5084552;28;20032;-77
2021/03/09 10:29:13;;;;;;;16.27;9.13;;;;;;;9.79;43.94;97328.00;5076144;28;20059;-77
2021/03/09 10:31:49;;;;;;;14.68;7.68;;;;;;;9.46;44.52;97329.50;5058171;28;20047;-78
2021/03/09 10:34:37;;;;;;;14.27;7.00;;;;;;;8.97;45.52;97333.28;5058958;28;20029;-77
2021/03/09 10:37:02;;;;;;;14.77;8.05;;;;;;;9.33;44.86;97330.56;5074127;28;20036;-77
2021/03/09 10:39:30;;;;;;;13.07;6.72;;;;;;;9.68;43.51;97327.81;5075195;28;20100;-78
2021/03/09 10:41:56;;;;;;;13.52;6.68;;;;;;;10.03;42.01;97324.22;5083703;28;20080;-77
2021/03/09 10:44:32;;;;;;;13.23;6.28;;;;;;;9.28;44.59;97322.69;5061574;28;20024;-78
2021/03/09 10:47:02;;;;;;;12.15;6.78;;;;;;;9.56;44.48;97320.09;5067436;28;20655;-78
2021/03/09 10:49:28;;;;;;;13.20;6.90;;;;;;;9.59;44.19;97323.22;5071059;28;20613;-77
2021/03/09 10:52:00;;;;;;;11.30;5.88;;;;;;;10.02;42.16;97317.41;5071069;28;20071;-78
2021/03/09 10:54:28;;;;;;;12.02;7.32;;;;;;;10.03;43.96;97318.22;5077053;28;20020;-77
2021/03/09 10:56:56;;;;;;;12.38;6.35;;;;;;;10.05;43.16;97303.16;5054081;28;20431;-78
2021/03/09 10:59:22;;;;;;;11.60;5.78;;;;;;;10.18;43.34;97310.66;5090497;28;20032;-77
2021/03/09 11:01:48;;;;;;;12.48;6.00;;;;;;;10.08;42.70;97302.69;5058940;28;20039;-77
2021/03/09 11:04:13;;;;;;;9.25;5.40;;;;;;;10.05;42.83;97306.53;5073045;28;20764;-78
2021/03/09 11:06:38;;;;;;;11.70;5.75;;;;;;;10.42;41.69;97300.88;5092989;28;20043;-77
2021/03/09 11:09:04;;;;;;;13.60;5.95;;;;;;;10.52;42.32;97300.22;5055895;28;20040;-77
2021/03/09 11:11:29;;;;;;;10.98;6.15;;;;;;;10.71;41.53;97295.50;5072419;28;20024;-77
2021/03/09 11:13:55;;;;;;;12.23;6.32;;;;;;;11.35;41.11;97302.72;5076084;28;20043;-78
2021/03/09 11:16:20;;;;;;;11.73;6.30;;;;;;;11.75;39.71;97295.50;5076649;28;20032;-78
2021/03/09 11:18:46;;;;;;;11.20;5.45;;;;;;;12.47;37.23;97288.19;5069249;28;20028;-77
2021/03/09 11:21:11;;;;;;;9.45;5.40;;;;;;;12.03;38.67;97299.69;5055804;28;20028;-77
2021/03/09 11:23:39;;;;;;;7.05;3.42;;;;;;;12.41;36.26;97300.44;5072899;28;20055;-77
2021/03/09 11:26:04;;;;;;;3.78;2.10;;;;;;;12.47;34.21;97291.59;5076361;28;20050;-78
2021/03/09 11:28:29;;;;;;;4.40;2.03;;;;;;;12.11;34.42;97293.22;5070616;28;20032;-78
2021/03/09 11:30:55;;;;;;;4.10;2.40;;;;;;;12.26;35.36;97297.75;5086367;28;20036;-78
2021/03/09 11:33:20;;;;;;;5.63;2.50;;;;;;;11.63;36.66;97298.28;5091519;28;20624;-78
2021/03/09 11:35:46;;;;;;;6.78;2.92;;;;;;;11.21;37.20;97291.13;5067247;28;20054;-77
2021/03/09 11:38:11;;;;;;;5.55;2.70;;;;;;;11.11;38.36;97285.81;5053095;28;20127;-77
2021/03/09 11:40:37;;;;;;;5.03;2.58;;;;;;;11.41;36.68;97293.13;5054677;28;20436;-78
2021/03/09 11:43:03;;;;;;;4.88;2.78;;;;;;;11.51;36.99;97290.63;5074716;28;20062;-77
2021/03/09 11:45:28;;;;;;;8.20;4.00;;;;;;;11.34;36.79;97300.38;5049840;28;20048;-78
2021/03/09 11:47:54;;;;;;;7.40;4.13;;;;;;;11.47;36.66;97294.75;5076099;28;20424;-78
2021/03/09 11:50:22;;;;;;;7.45;4.00;;;;;;;11.42;37.04;97282.44;5072993;28;20065;-78